sensor_id;sensor_type;location;lat;lon;timestamp;temperature;humidity
23385;DHT22;11865;45.394;10.978;2023-03-31T00:00:53;12.00;99.90
23385;DHT22;11865;45.394;10.978;2023-03-31T00:03:20;11.90;99.90
23385;DHT22;11865;45.394;10.978;2023-03-31T00:05:54;11.90;99.90
23385;DHT22;11865;45.394;10.978;2023-03-31T00:08:21;12.00;99.90
23385;DHT22;11865;45.394;10.978;2023-03-31T00:10:49;12.00;99.90
23385;DHT22;11865;45.394;10.978;2023-03-31T00:13:17;12.00;99.90
23385;DHT22;11865;45.394;10.978;2023-03-31T00:15:44;12.00;99.90
23385;DHT22;11865;45.394;10.978;2023-03-31T00:18:12;12.10;99.90
23385;DHT22;11865;45.394;10.978;2023-03-31T00:20:39;12.10;99.90
23385;DHT22;11865;45.394;10.978;2023-03-31T00:23:09;12.10;99.90
23385;DHT22;11865;45.394;10.978;2023-03-31T00:25:40;12.10;99.90
23385;DHT22;11865;45.394;10.978;2023-03-31T00:28:08;12.10;99.90
23385;DHT22;11865;45.394;10.978;2023-03-31T00:30:35;12.00;99.90
23385;DHT22;11865;45.394;10.978;2023-03-31T00:33:03;11.90;99.90
23385;DHT22;11865;45.394;10.978;2023-03-31T00:35:31;11.90;99.90
23385;DHT22;11865;45.394;10.978;2023-03-31T00:38:01;11.80;99.90
23385;DHT22;11865;45.394;10.978;2023-03-31T00:40:28;11.90;99.90
23385;DHT22;11865;45.394;10.978;2023-03-31T00:42:56;11.90;99.90
23385;DHT22;11865;45.394;10.978;2023-03-31T00:45:26;11.90;99.90
23385;DHT22;11865;45.394;10.978;2023-03-31T00:48:13;12.00;99.90
23385;DHT22;11865;45.394;10.978;2023-03-31T00:50:50;11.80;99.90
23385;DHT22;11865;45.394;10.978;2023-03-31T00:53:23;11.60;99.90
23385;DHT22;11865;45.394;10.978;2023-03-31T00:56:00;11.50;99.90
23385;DHT22;11865;45.394;10.978;2023-03-31T00:58:28;11.40;99.90
23385;DHT22;11865;45.394;10.978;2023-03-31T01:01:00;11.50;99.90
23385;DHT22;11865;45.394;10.978;2023-03-31T01:03:31;11.50;99.90
23385;DHT22;11865;45.394;10.978;2023-03-31T01:06:02;11.50;99.90
23385;DHT22;11865;45.394;10.978;2023-03-31T01:08:32;11.50;99.90
23385;DHT22;11865;45.394;10.978;2023-03-31T01:11:05;11.50;99.90
23385;DHT22;11865;45.394;10.978;2023-03-31T01:13:35;11.40;99.90
23385;DHT22;11865;45.394;10.978;2023-03-31T01:16:03;11.30;99.90
23385;DHT22;11865;45.394;10.978;2023-03-31T01:18:31;11.30;99.90
23385;DHT22;11865;45.394;10.978;2023-03-31T01:33:15;11.30;99.90
23385;DHT22;11865;45.394;10.978;2023-03-31T01:49:22;11.00;99.90
23385;DHT22;11865;45.394;10.978;2023-03-31T01:52:07;11.00;99.90
23385;DHT22;11865;45.394;10.978;2023-03-31T01:54:49;11.00;99.90
23385;DHT22;11865;45.394;10.978;2023-03-31T02:02:46;11.00;99.90
23385;DHT22;11865;45.394;10.978;2023-03-31T02:05:23;11.00;99.90
23385;DHT22;11865;45.394;10.978;2023-03-31T02:08:12;11.00;99.90
23385;DHT22;11865;45.394;10.978;2023-03-31T02:10:43;11.00;99.90
23385;DHT22;11865;45.394;10.978;2023-03-31T02:13:13;10.70;99.90
23385;DHT22;11865;45.394;10.978;2023-03-31T02:15:45;10.80;99.90
23385;DHT22;11865;45.394;10.978;2023-03-31T02:18:17;10.80;99.90
23385;DHT22;11865;45.394;10.978;2023-03-31T02:20:47;10.70;99.90
23385;DHT22;11865;45.394;10.978;2023-03-31T02:23:19;10.50;99.90
23385;DHT22;11865;45.394;10.978;2023-03-31T02:25:56;10.50;99.90
23385;DHT22;11865;45.394;10.978;2023-03-31T02:28:27;10.50;99.90
23385;DHT22;11865;45.394;10.978;2023-03-31T02:33:32;10.30;99.90
23385;DHT22;11865;45.394;10.978;2023-03-31T02:36:00;10.20;99.90
23385;DHT22;11865;45.394;10.978;2023-03-31T02:38:32;10.10;99.90
23385;DHT22;11865;45.394;10.978;2023-03-31T02:41:01;10.00;99.90
23385;DHT22;11865;45.394;10.978;2023-03-31T02:43:28;9.90;99.90
23385;DHT22;11865;45.394;10.978;2023-03-31T02:45:56;10.00;99.90
23385;DHT22;11865;45.394;10.978;2023-03-31T02:48:31;10.20;99.90
23385;DHT22;11865;45.394;10.978;2023-03-31T03:02:09;9.80;99.90
23385;DHT22;11865;45.394;10.978;2023-03-31T03:07:28;10.00;99.90
23385;DHT22;11865;45.394;10.978;2023-03-31T03:10:09;9.90;99.90
23385;DHT22;11865;45.394;10.978;2023-03-31T03:15:20;10.10;99.90
23385;DHT22;11865;45.394;10.978;2023-03-31T03:17:51;10.20;99.90
23385;DHT22;11865;45.394;10.978;2023-03-31T03:20:20;10.30;99.90
23385;DHT22;11865;45.394;10.978;2023-03-31T03:22:48;10.30;99.90
23385;DHT22;11865;45.394;10.978;2023-03-31T03:25:16;10.60;99.90
23385;DHT22;11865;45.394;10.978;2023-03-31T03:27:44;10.80;99.90
23385;DHT22;11865;45.394;10.978;2023-03-31T03:30:12;11.00;99.90
23385;DHT22;11865;45.394;10.978;2023-03-31T03:32:40;11.00;99.90
23385;DHT22;11865;45.394;10.978;2023-03-31T03:35:09;11.10;99.90
23385;DHT22;11865;45.394;10.978;2023-03-31T03:37:37;11.10;99.90
23385;DHT22;11865;45.394;10.978;2023-03-31T03:40:05;11.10;99.90
23385;DHT22;11865;45.394;10.978;2023-03-31T03:42:33;11.10;99.90
23385;DHT22;11865;45.394;10.978;2023-03-31T03:45:01;11.00;99.90
23385;DHT22;11865;45.394;10.978;2023-03-31T03:47:29;11.10;99.90
23385;DHT22;11865;45.394;10.978;2023-03-31T03:49:57;11.20;99.90
23385;DHT22;11865;45.394;10.978;2023-03-31T03:52:24;11.20;99.90
23385;DHT22;11865;45.394;10.978;2023-03-31T03:54:52;11.30;99.90
23385;DHT22;11865;45.394;10.978;2023-03-31T03:57:19;11.30;99.90
23385;DHT22;11865;45.394;10.978;2023-03-31T03:59:47;11.40;99.90
23385;DHT22;11865;45.394;10.978;2023-03-31T04:02:16;11.40;99.90
23385;DHT22;11865;45.394;10.978;2023-03-31T04:04:43;11.30;99.90
23385;DHT22;11865;45.394;10.978;2023-03-31T04:07:11;11.40;99.90
23385;DHT22;11865;45.394;10.978;2023-03-31T04:09:38;11.40;99.90
23385;DHT22;11865;45.394;10.978;2023-03-31T04:12:06;11.40;99.90
23385;DHT22;11865;45.394;10.978;2023-03-31T04:14:33;11.40;99.90
23385;DHT22;11865;45.394;10.978;2023-03-31T04:17:01;11.40;99.90
23385;DHT22;11865;45.394;10.978;2023-03-31T04:19:28;11.40;99.90
23385;DHT22;11865;45.394;10.978;2023-03-31T04:21:56;11.50;99.90
23385;DHT22;11865;45.394;10.978;2023-03-31T04:24:31;11.50;99.90
23385;DHT22;11865;45.394;10.978;2023-03-31T04:27:00;11.50;99.90
23385;DHT22;11865;45.394;10.978;2023-03-31T04:29:29;11.40;99.90
23385;DHT22;11865;45.394;10.978;2023-03-31T04:32:00;11.50;99.90
23385;DHT22;11865;45.394;10.978;2023-03-31T04:34:28;11.50;99.90
23385;DHT22;11865;45.394;10.978;2023-03-31T04:37:02;11.60;99.90
23385;DHT22;11865;45.394;10.978;2023-03-31T04:39:30;11.60;99.90
23385;DHT22;11865;45.394;10.978;2023-03-31T04:41:58;11.60;99.90
23385;DHT22;11865;45.394;10.978;2023-03-31T04:44:26;11.70;99.90
23385;DHT22;11865;45.394;10.978;2023-03-31T04:46:55;11.70;99.90
23385;DHT22;11865;45.394;10.978;2023-03-31T04:49:23;11.70;99.90
23385;DHT22;11865;45.394;10.978;2023-03-31T04:51:50;11.80;99.90
23385;DHT22;11865;45.394;10.978;2023-03-31T04:54:18;11.80;99.90
23385;DHT22;11865;45.394;10.978;2023-03-31T04:56:45;11.70;99.90
23385;DHT22;11865;45.394;10.978;2023-03-31T04:59:13;11.70;99.90
23385;DHT22;11865;45.394;10.978;2023-03-31T05:01:40;11.60;99.90
23385;DHT22;11865;45.394;10.978;2023-03-31T05:04:12;11.60;99.90
23385;DHT22;11865;45.394;10.978;2023-03-31T05:06:39;11.50;99.90
23385;DHT22;11865;45.394;10.978;2023-03-31T05:09:07;11.40;99.90
23385;DHT22;11865;45.394;10.978;2023-03-31T05:11:36;11.40;99.90
23385;DHT22;11865;45.394;10.978;2023-03-31T05:14:04;11.40;99.90
23385;DHT22;11865;45.394;10.978;2023-03-31T05:16:32;11.40;99.90
23385;DHT22;11865;45.394;10.978;2023-03-31T05:19:00;11.30;99.90
23385;DHT22;11865;45.394;10.978;2023-03-31T05:21:28;11.30;99.90
23385;DHT22;11865;45.394;10.978;2023-03-31T05:23:57;11.40;99.90
23385;DHT22;11865;45.394;10.978;2023-03-31T05:26:25;11.30;99.90
23385;DHT22;11865;45.394;10.978;2023-03-31T05:28:52;11.30;99.90
23385;DHT22;11865;45.394;10.978;2023-03-31T05:31:21;11.40;99.90
23385;DHT22;11865;45.394;10.978;2023-03-31T05:33:48;11.30;99.90
23385;DHT22;11865;45.394;10.978;2023-03-31T05:36:17;11.40;99.90
23385;DHT22;11865;45.394;10.978;2023-03-31T05:38:44;11.50;99.90
23385;DHT22;11865;45.394;10.978;2023-03-31T05:41:14;11.50;99.90
23385;DHT22;11865;45.394;10.978;2023-03-31T05:43:43;11.40;99.90
23385;DHT22;11865;45.394;10.978;2023-03-31T05:46:10;11.40;99.90
23385;DHT22;11865;45.394;10.978;2023-03-31T05:48:38;11.30;99.90
23385;DHT22;11865;45.394;10.978;2023-03-31T05:51:06;11.30;99.90
23385;DHT22;11865;45.394;10.978;2023-03-31T05:53:33;11.20;99.90
23385;DHT22;11865;45.394;10.978;2023-03-31T05:56:04;11.20;99.90
23385;DHT22;11865;45.394;10.978;2023-03-31T05:58:34;11.20;99.90
23385;DHT22;11865;45.394;10.978;2023-03-31T06:01:08;11.20;99.90
23385;DHT22;11865;45.394;10.978;2023-03-31T06:03:39;11.30;99.90
23385;DHT22;11865;45.394;10.978;2023-03-31T06:06:09;11.30;99.90
23385;DHT22;11865;45.394;10.978;2023-03-31T06:08:36;11.30;99.90
23385;DHT22;11865;45.394;10.978;2023-03-31T06:11:06;11.30;99.90
23385;DHT22;11865;45.394;10.978;2023-03-31T06:13:35;11.30;99.90
23385;DHT22;11865;45.394;10.978;2023-03-31T06:16:04;11.30;99.90
23385;DHT22;11865;45.394;10.978;2023-03-31T06:18:33;11.30;99.90
23385;DHT22;11865;45.394;10.978;2023-03-31T06:21:02;11.30;99.90
23385;DHT22;11865;45.394;10.978;2023-03-31T06:23:30;11.30;99.90
23385;DHT22;11865;45.394;10.978;2023-03-31T06:26:03;11.40;99.90
23385;DHT22;11865;45.394;10.978;2023-03-31T06:28:31;11.40;99.90
23385;DHT22;11865;45.394;10.978;2023-03-31T06:31:07;11.40;99.90
23385;DHT22;11865;45.394;10.978;2023-03-31T06:33:35;11.40;99.90
23385;DHT22;11865;45.394;10.978;2023-03-31T06:36:03;11.40;99.90
23385;DHT22;11865;45.394;10.978;2023-03-31T06:38:35;11.40;99.90
23385;DHT22;11865;45.394;10.978;2023-03-31T06:41:05;11.40;99.90
23385;DHT22;11865;45.394;10.978;2023-03-31T06:43:34;11.50;99.90
23385;DHT22;11865;45.394;10.978;2023-03-31T06:46:02;11.50;99.90
23385;DHT22;11865;45.394;10.978;2023-03-31T06:48:30;11.50;99.90
23385;DHT22;11865;45.394;10.978;2023-03-31T06:50:59;11.60;99.90
23385;DHT22;11865;45.394;10.978;2023-03-31T06:53:28;11.70;99.90
23385;DHT22;11865;45.394;10.978;2023-03-31T06:55:55;11.70;99.90
23385;DHT22;11865;45.394;10.978;2023-03-31T06:58:23;11.70;99.90
23385;DHT22;11865;45.394;10.978;2023-03-31T07:00:51;11.80;99.90
23385;DHT22;11865;45.394;10.978;2023-03-31T07:03:19;11.90;99.90
23385;DHT22;11865;45.394;10.978;2023-03-31T07:05:53;11.90;99.90
23385;DHT22;11865;45.394;10.978;2023-03-31T07:08:21;12.00;99.90
23385;DHT22;11865;45.394;10.978;2023-03-31T07:10:58;12.10;99.90
23385;DHT22;11865;45.394;10.978;2023-03-31T07:13:27;12.10;99.90
23385;DHT22;11865;45.394;10.978;2023-03-31T07:15:54;12.10;99.90
23385;DHT22;11865;45.394;10.978;2023-03-31T07:18:23;12.30;99.90
23385;DHT22;11865;45.394;10.978;2023-03-31T07:21:02;12.40;99.90
23385;DHT22;11865;45.394;10.978;2023-03-31T07:23:32;12.50;99.90
23385;DHT22;11865;45.394;10.978;2023-03-31T07:25:59;12.40;99.90
23385;DHT22;11865;45.394;10.978;2023-03-31T07:28:29;12.40;99.90
23385;DHT22;11865;45.394;10.978;2023-03-31T07:30:57;12.30;99.90
23385;DHT22;11865;45.394;10.978;2023-03-31T07:33:24;12.30;99.90
23385;DHT22;11865;45.394;10.978;2023-03-31T07:35:52;12.40;99.90
23385;DHT22;11865;45.394;10.978;2023-03-31T07:38:38;12.40;99.90
23385;DHT22;11865;45.394;10.978;2023-03-31T07:41:08;12.70;99.90
23385;DHT22;11865;45.394;10.978;2023-03-31T07:43:36;12.60;99.90
23385;DHT22;11865;45.394;10.978;2023-03-31T07:46:04;12.70;99.90
23385;DHT22;11865;45.394;10.978;2023-03-31T07:48:32;12.60;99.90
23385;DHT22;11865;45.394;10.978;2023-03-31T07:51:00;12.70;99.90
23385;DHT22;11865;45.394;10.978;2023-03-31T07:53:33;12.70;99.90
23385;DHT22;11865;45.394;10.978;2023-03-31T07:56:00;12.70;99.90
23385;DHT22;11865;45.394;10.978;2023-03-31T07:58:27;12.80;99.90
23385;DHT22;11865;45.394;10.978;2023-03-31T08:00:55;12.70;99.90
23385;DHT22;11865;45.394;10.978;2023-03-31T08:03:23;12.80;99.90
23385;DHT22;11865;45.394;10.978;2023-03-31T08:05:51;12.80;99.90
23385;DHT22;11865;45.394;10.978;2023-03-31T08:08:20;12.80;99.90
23385;DHT22;11865;45.394;10.978;2023-03-31T08:10:48;12.80;99.90
23385;DHT22;11865;45.394;10.978;2023-03-31T08:13:15;12.80;99.90
23385;DHT22;11865;45.394;10.978;2023-03-31T08:15:43;12.90;99.90
23385;DHT22;11865;45.394;10.978;2023-03-31T08:18:10;12.90;99.90
23385;DHT22;11865;45.394;10.978;2023-03-31T08:20:38;12.90;99.90
23385;DHT22;11865;45.394;10.978;2023-03-31T08:23:06;12.90;99.90
23385;DHT22;11865;45.394;10.978;2023-03-31T08:25:35;12.90;99.90
23385;DHT22;11865;45.394;10.978;2023-03-31T08:28:04;12.90;99.90
23385;DHT22;11865;45.394;10.978;2023-03-31T08:30:33;12.90;99.90
23385;DHT22;11865;45.394;10.978;2023-03-31T08:33:00;12.90;99.90
23385;DHT22;11865;45.394;10.978;2023-03-31T08:35:28;13.10;99.90
23385;DHT22;11865;45.394;10.978;2023-03-31T08:37:55;13.30;99.90
23385;DHT22;11865;45.394;10.978;2023-03-31T08:40:25;13.20;99.90
23385;DHT22;11865;45.394;10.978;2023-03-31T08:43:01;13.20;99.90
23385;DHT22;11865;45.394;10.978;2023-03-31T08:45:36;13.20;99.90
23385;DHT22;11865;45.394;10.978;2023-03-31T08:48:21;13.10;99.90
23385;DHT22;11865;45.394;10.978;2023-03-31T08:51:38;13.40;99.90
23385;DHT22;11865;45.394;10.978;2023-03-31T08:53:57;13.40;99.90
23385;DHT22;11865;45.394;10.978;2023-03-31T08:56:26;13.30;99.90
23385;DHT22;11865;45.394;10.978;2023-03-31T08:58:54;13.00;99.90
23385;DHT22;11865;45.394;10.978;2023-03-31T09:01:43;13.30;99.90
23385;DHT22;11865;45.394;10.978;2023-03-31T09:10:23;13.10;99.90
23385;DHT22;11865;45.394;10.978;2023-03-31T09:15:53;13.40;99.90
23385;DHT22;11865;45.394;10.978;2023-03-31T09:21:12;13.30;99.90
23385;DHT22;11865;45.394;10.978;2023-03-31T09:26:59;13.40;99.90
23385;DHT22;11865;45.394;10.978;2023-03-31T09:32:21;13.80;99.90
23385;DHT22;11865;45.394;10.978;2023-03-31T09:34:57;14.00;99.90
23385;DHT22;11865;45.394;10.978;2023-03-31T09:37:30;14.10;99.90
23385;DHT22;11865;45.394;10.978;2023-03-31T09:39:59;14.30;99.90
23385;DHT22;11865;45.394;10.978;2023-03-31T09:42:34;14.20;99.90
23385;DHT22;11865;45.394;10.978;2023-03-31T09:45:02;14.10;99.90
23385;DHT22;11865;45.394;10.978;2023-03-31T09:47:40;14.20;99.90
23385;DHT22;11865;45.394;10.978;2023-03-31T09:50:10;14.00;99.90
23385;DHT22;11865;45.394;10.978;2023-03-31T09:52:45;14.20;99.90
23385;DHT22;11865;45.394;10.978;2023-03-31T09:58:10;14.30;99.90
23385;DHT22;11865;45.394;10.978;2023-03-31T10:00:43;14.40;99.90
23385;DHT22;11865;45.394;10.978;2023-03-31T10:03:23;14.50;99.90
23385;DHT22;11865;45.394;10.978;2023-03-31T10:05:53;14.60;99.90
23385;DHT22;11865;45.394;10.978;2023-03-31T10:14:02;14.40;99.90
23385;DHT22;11865;45.394;10.978;2023-03-31T10:16:49;14.70;99.90
23385;DHT22;11865;45.394;10.978;2023-03-31T10:19:26;14.90;99.90
23385;DHT22;11865;45.394;10.978;2023-03-31T10:22:32;15.10;99.90
23385;DHT22;11865;45.394;10.978;2023-03-31T10:24:53;15.10;99.90
23385;DHT22;11865;45.394;10.978;2023-03-31T10:27:25;15.10;99.90
23385;DHT22;11865;45.394;10.978;2023-03-31T10:30:03;15.30;99.90
23385;DHT22;11865;45.394;10.978;2023-03-31T10:32:33;15.60;99.90
23385;DHT22;11865;45.394;10.978;2023-03-31T10:37:39;16.00;99.90
23385;DHT22;11865;45.394;10.978;2023-03-31T10:40:16;16.00;99.90
23385;DHT22;11865;45.394;10.978;2023-03-31T10:42:48;15.90;99.90
23385;DHT22;11865;45.394;10.978;2023-03-31T10:45:29;15.80;99.90
23385;DHT22;11865;45.394;10.978;2023-03-31T10:48:08;15.80;99.90
23385;DHT22;11865;45.394;10.978;2023-03-31T10:50:43;15.90;99.90
23385;DHT22;11865;45.394;10.978;2023-03-31T10:53:13;16.10;99.90
23385;DHT22;11865;45.394;10.978;2023-03-31T11:16:02;16.90;99.90
23385;DHT22;11865;45.394;10.978;2023-03-31T11:27:29;17.00;99.60
23385;DHT22;11865;45.394;10.978;2023-03-31T11:30:21;16.60;99.90
23385;DHT22;11865;45.394;10.978;2023-03-31T11:36:07;16.70;99.90
23385;DHT22;11865;45.394;10.978;2023-03-31T11:38:55;16.50;99.90
23385;DHT22;11865;45.394;10.978;2023-03-31T11:44:02;16.50;99.90
23385;DHT22;11865;45.394;10.978;2023-03-31T11:49:29;16.60;99.80
23385;DHT22;11865;45.394;10.978;2023-03-31T11:51:58;16.10;99.90
23385;DHT22;11865;45.394;10.978;2023-03-31T11:57:43;16.80;99.90
23385;DHT22;11865;45.394;10.978;2023-03-31T12:00:21;16.90;99.30
23385;DHT22;11865;45.394;10.978;2023-03-31T12:06:29;17.40;98.40
23385;DHT22;11865;45.394;10.978;2023-03-31T12:09:02;17.50;97.60
23385;DHT22;11865;45.394;10.978;2023-03-31T12:11:37;17.40;96.50
23385;DHT22;11865;45.394;10.978;2023-03-31T12:17:17;18.00;98.30
23385;DHT22;11865;45.394;10.978;2023-03-31T12:20:02;18.30;96.20
23385;DHT22;11865;45.394;10.978;2023-03-31T12:22:42;18.40;95.30
23385;DHT22;11865;45.394;10.978;2023-03-31T12:25:19;18.80;95.20
23385;DHT22;11865;45.394;10.978;2023-03-31T12:27:49;18.90;94.70
23385;DHT22;11865;45.394;10.978;2023-03-31T12:30:38;18.90;95.00
23385;DHT22;11865;45.394;10.978;2023-03-31T12:33:27;18.60;93.90
23385;DHT22;11865;45.394;10.978;2023-03-31T12:48:23;18.30;93.80
23385;DHT22;11865;45.394;10.978;2023-03-31T12:56:24;18.30;93.40
23385;DHT22;11865;45.394;10.978;2023-03-31T12:58:52;18.20;95.00
23385;DHT22;11865;45.394;10.978;2023-03-31T13:01:23;17.60;94.30
23385;DHT22;11865;45.394;10.978;2023-03-31T13:09:02;18.10;95.70
23385;DHT22;11865;45.394;10.978;2023-03-31T13:16:40;17.90;96.60
23385;DHT22;11865;45.394;10.978;2023-03-31T13:19:11;17.90;95.50
23385;DHT22;11865;45.394;10.978;2023-03-31T13:21:54;18.10;96.30
23385;DHT22;11865;45.394;10.978;2023-03-31T13:24:27;18.20;96.30
23385;DHT22;11865;45.394;10.978;2023-03-31T13:26:56;18.20;94.90
23385;DHT22;11865;45.394;10.978;2023-03-31T13:29:41;18.60;96.20
23385;DHT22;11865;45.394;10.978;2023-03-31T13:35:14;18.50;95.20
23385;DHT22;11865;45.394;10.978;2023-03-31T13:41:06;18.20;95.20
23385;DHT22;11865;45.394;10.978;2023-03-31T13:43:57;18.00;96.00
23385;DHT22;11865;45.394;10.978;2023-03-31T13:52:08;17.90;95.30
23385;DHT22;11865;45.394;10.978;2023-03-31T14:06:34;17.70;95.10
23385;DHT22;11865;45.394;10.978;2023-03-31T14:09:08;17.90;94.70
23385;DHT22;11865;45.394;10.978;2023-03-31T14:11:37;17.80;96.50
23385;DHT22;11865;45.394;10.978;2023-03-31T14:14:15;17.70;95.30
23385;DHT22;11865;45.394;10.978;2023-03-31T14:16:58;17.70;94.80
23385;DHT22;11865;45.394;10.978;2023-03-31T14:37:05;17.40;96.10
23385;DHT22;11865;45.394;10.978;2023-03-31T14:39:35;17.50;96.00
23385;DHT22;11865;45.394;10.978;2023-03-31T14:42:39;17.40;96.10
23385;DHT22;11865;45.394;10.978;2023-03-31T14:45:29;17.30;96.20
23385;DHT22;11865;45.394;10.978;2023-03-31T14:48:12;17.40;97.10
23385;DHT22;11865;45.394;10.978;2023-03-31T14:50:45;17.40;96.70
23385;DHT22;11865;45.394;10.978;2023-03-31T14:53:18;17.50;95.40
23385;DHT22;11865;45.394;10.978;2023-03-31T14:55:50;17.50;96.10
23385;DHT22;11865;45.394;10.978;2023-03-31T14:58:31;17.50;96.80
23385;DHT22;11865;45.394;10.978;2023-03-31T15:01:06;17.50;97.20
23385;DHT22;11865;45.394;10.978;2023-03-31T15:03:36;17.40;97.50
23385;DHT22;11865;45.394;10.978;2023-03-31T15:06:08;17.30;96.60
23385;DHT22;11865;45.394;10.978;2023-03-31T15:08:36;17.00;96.30
23385;DHT22;11865;45.394;10.978;2023-03-31T15:11:09;17.10;97.70
23385;DHT22;11865;45.394;10.978;2023-03-31T15:13:50;16.80;97.20
23385;DHT22;11865;45.394;10.978;2023-03-31T15:16:39;16.60;97.00
23385;DHT22;11865;45.394;10.978;2023-03-31T15:19:14;16.80;97.20
23385;DHT22;11865;45.394;10.978;2023-03-31T15:21:43;16.90;97.00
23385;DHT22;11865;45.394;10.978;2023-03-31T15:24:13;17.00;98.00
23385;DHT22;11865;45.394;10.978;2023-03-31T15:27:02;16.70;97.80
23385;DHT22;11865;45.394;10.978;2023-03-31T15:32:04;16.40;97.80
23385;DHT22;11865;45.394;10.978;2023-03-31T15:34:33;16.40;97.50
23385;DHT22;11865;45.394;10.978;2023-03-31T15:37:06;16.40;97.00
23385;DHT22;11865;45.394;10.978;2023-03-31T15:39:35;16.30;97.20
23385;DHT22;11865;45.394;10.978;2023-03-31T15:42:06;16.30;97.80
23385;DHT22;11865;45.394;10.978;2023-03-31T15:47:16;16.20;98.70
23385;DHT22;11865;45.394;10.978;2023-03-31T15:52:53;16.10;97.80
23385;DHT22;11865;45.394;10.978;2023-03-31T15:57:50;16.10;97.60
23385;DHT22;11865;45.394;10.978;2023-03-31T16:03:00;16.10;98.60
23385;DHT22;11865;45.394;10.978;2023-03-31T16:05:55;16.00;99.90
23385;DHT22;11865;45.394;10.978;2023-03-31T16:08:31;15.90;99.20
23385;DHT22;11865;45.394;10.978;2023-03-31T16:11:08;15.80;99.70
23385;DHT22;11865;45.394;10.978;2023-03-31T16:13:41;15.80;99.60
23385;DHT22;11865;45.394;10.978;2023-03-31T16:16:13;15.80;99.90
23385;DHT22;11865;45.394;10.978;2023-03-31T16:18:48;15.70;99.90
23385;DHT22;11865;45.394;10.978;2023-03-31T16:21:25;15.70;99.90
23385;DHT22;11865;45.394;10.978;2023-03-31T16:23:57;15.60;99.90
23385;DHT22;11865;45.394;10.978;2023-03-31T16:26:26;15.50;99.90
23385;DHT22;11865;45.394;10.978;2023-03-31T16:28:55;15.40;99.90
23385;DHT22;11865;45.394;10.978;2023-03-31T16:31:38;15.40;99.90
23385;DHT22;11865;45.394;10.978;2023-03-31T16:34:10;15.40;99.90
23385;DHT22;11865;45.394;10.978;2023-03-31T16:36:38;15.40;99.90
23385;DHT22;11865;45.394;10.978;2023-03-31T16:39:05;15.40;99.90
23385;DHT22;11865;45.394;10.978;2023-03-31T16:41:35;15.40;99.90
23385;DHT22;11865;45.394;10.978;2023-03-31T16:44:04;15.30;99.90
23385;DHT22;11865;45.394;10.978;2023-03-31T16:46:32;15.30;99.90
23385;DHT22;11865;45.394;10.978;2023-03-31T16:49:00;15.40;99.90
23385;DHT22;11865;45.394;10.978;2023-03-31T16:51:27;15.40;99.90
23385;DHT22;11865;45.394;10.978;2023-03-31T16:53:55;15.30;99.90
23385;DHT22;11865;45.394;10.978;2023-03-31T16:56:25;15.40;99.60
23385;DHT22;11865;45.394;10.978;2023-03-31T16:58:53;15.40;99.60
23385;DHT22;11865;45.394;10.978;2023-03-31T17:01:21;15.40;99.90
23385;DHT22;11865;45.394;10.978;2023-03-31T17:03:48;15.30;99.90
23385;DHT22;11865;45.394;10.978;2023-03-31T17:06:17;15.30;99.90
23385;DHT22;11865;45.394;10.978;2023-03-31T17:08:44;15.10;99.90
23385;DHT22;11865;45.394;10.978;2023-03-31T17:11:12;15.00;99.90
23385;DHT22;11865;45.394;10.978;2023-03-31T17:13:41;14.90;99.90
23385;DHT22;11865;45.394;10.978;2023-03-31T17:16:11;14.80;99.90
23385;DHT22;11865;45.394;10.978;2023-03-31T17:18:53;14.60;99.90
23385;DHT22;11865;45.394;10.978;2023-03-31T17:21:20;14.50;99.90
23385;DHT22;11865;45.394;10.978;2023-03-31T17:23:49;14.40;99.90
23385;DHT22;11865;45.394;10.978;2023-03-31T17:26:17;14.20;99.90
23385;DHT22;11865;45.394;10.978;2023-03-31T17:28:45;14.10;99.90
23385;DHT22;11865;45.394;10.978;2023-03-31T17:31:15;14.10;99.90
23385;DHT22;11865;45.394;10.978;2023-03-31T17:33:43;14.10;99.90
23385;DHT22;11865;45.394;10.978;2023-03-31T17:36:11;14.00;99.90
23385;DHT22;11865;45.394;10.978;2023-03-31T17:38:39;13.90;99.90
23385;DHT22;11865;45.394;10.978;2023-03-31T17:41:10;13.70;99.90
23385;DHT22;11865;45.394;10.978;2023-03-31T17:43:39;13.50;99.90
23385;DHT22;11865;45.394;10.978;2023-03-31T17:46:08;13.30;99.90
23385;DHT22;11865;45.394;10.978;2023-03-31T17:48:40;13.00;99.90
23385;DHT22;11865;45.394;10.978;2023-03-31T17:51:17;13.00;99.90
23385;DHT22;11865;45.394;10.978;2023-03-31T17:53:45;12.90;99.90
23385;DHT22;11865;45.394;10.978;2023-03-31T17:56:14;13.20;99.90
23385;DHT22;11865;45.394;10.978;2023-03-31T17:58:43;13.30;99.90
23385;DHT22;11865;45.394;10.978;2023-03-31T18:01:12;13.30;99.90
23385;DHT22;11865;45.394;10.978;2023-03-31T18:03:40;13.30;99.90
23385;DHT22;11865;45.394;10.978;2023-03-31T18:06:09;13.40;99.90
23385;DHT22;11865;45.394;10.978;2023-03-31T18:08:39;13.20;99.90
23385;DHT22;11865;45.394;10.978;2023-03-31T18:11:09;12.80;99.90
23385;DHT22;11865;45.394;10.978;2023-03-31T18:13:37;12.50;99.90
23385;DHT22;11865;45.394;10.978;2023-03-31T18:16:06;12.40;99.90
23385;DHT22;11865;45.394;10.978;2023-03-31T18:18:40;12.70;99.90
23385;DHT22;11865;45.394;10.978;2023-03-31T18:21:09;12.50;99.90
23385;DHT22;11865;45.394;10.978;2023-03-31T18:23:38;12.20;99.90
23385;DHT22;11865;45.394;10.978;2023-03-31T18:26:06;12.00;99.90
23385;DHT22;11865;45.394;10.978;2023-03-31T18:28:34;11.90;99.90
23385;DHT22;11865;45.394;10.978;2023-03-31T18:31:06;11.90;99.90
23385;DHT22;11865;45.394;10.978;2023-03-31T18:33:34;11.80;99.90
23385;DHT22;11865;45.394;10.978;2023-03-31T18:36:02;11.80;99.90
23385;DHT22;11865;45.394;10.978;2023-03-31T18:38:30;11.80;99.90
23385;DHT22;11865;45.394;10.978;2023-03-31T18:40:59;11.80;99.90
23385;DHT22;11865;45.394;10.978;2023-03-31T18:43:26;11.60;99.90
23385;DHT22;11865;45.394;10.978;2023-03-31T18:45:57;11.50;99.90
23385;DHT22;11865;45.394;10.978;2023-03-31T18:48:27;11.60;99.90
23385;DHT22;11865;45.394;10.978;2023-03-31T18:50:55;11.50;99.90
23385;DHT22;11865;45.394;10.978;2023-03-31T18:53:23;11.50;99.90
23385;DHT22;11865;45.394;10.978;2023-03-31T18:55:56;11.40;99.90
23385;DHT22;11865;45.394;10.978;2023-03-31T18:58:25;11.40;99.90
23385;DHT22;11865;45.394;10.978;2023-03-31T19:00:53;11.30;99.90
23385;DHT22;11865;45.394;10.978;2023-03-31T19:03:22;11.20;99.90
23385;DHT22;11865;45.394;10.978;2023-03-31T19:05:49;11.10;99.90
23385;DHT22;11865;45.394;10.978;2023-03-31T19:08:17;11.10;99.90
23385;DHT22;11865;45.394;10.978;2023-03-31T19:10:44;11.30;99.90